Time;durP1;ratioP1;P1;durP2;ratioP2;P2;SDS_P1;SDS_P2;PMS_P1;PMS_P2;Temp;Humidity;BMP_temperature;BMP_pressure;BME280_temperature;BME280_humidity;BME280_pressure;Samples;Min_cycle;Max_cycle;Signal;HPM_P1;HPM_P2
2022/03/06 00:02:09;;;;;;;19.35;9.73;;;3.40;99.90;;;;;;5072960;28;20541;-49
2022/03/06 00:04:35;;;;;;;18.60;10.40;;;3.30;99.90;;;;;;5072886;28;20167;-49
2022/03/06 00:07:00;;;;;;;23.00;10.77;;;3.30;99.90;;;;;;5072357;28;20172;-49
2022/03/06 00:09:26;;;;;;;17.73;10.45;;;3.20;99.90;;;;;;5054677;28;20280;-50
2022/03/06 00:11:52;;;;;;;17.65;10.50;;;3.20;99.90;;;;;;5072620;28;20158;-49
2022/03/06 00:14:18;;;;;;;18.85;10.02;;;3.20;99.90;;;;;;5072672;28;20166;-50
2022/03/06 00:16:44;;;;;;;18.13;10.57;;;3.20;99.90;;;;;;5072653;28;20245;-50
2022/03/06 00:19:09;;;;;;;16.95;10.75;;;3.20;99.90;;;;;;5072611;28;20174;-49
2022/03/06 00:21:35;;;;;;;16.45;9.73;;;3.10;99.90;;;;;;5072819;28;20166;-50
2022/03/06 00:24:01;;;;;;;18.02;10.75;;;3.10;99.90;;;;;;5072487;28;20232;-49
2022/03/06 00:26:27;;;;;;;17.48;10.20;;;3.00;99.90;;;;;;5072542;28;20219;-49
2022/03/06 00:28:52;;;;;;;20.83;10.85;;;2.90;99.90;;;;;;5072342;28;20253;-50
2022/03/06 00:31:18;;;;;;;17.48;9.90;;;2.90;99.90;;;;;;5072387;28;20166;-49
2022/03/06 00:33:44;;;;;;;17.00;10.25;;;2.90;99.90;;;;;;5072381;28;20173;-49
2022/03/06 00:36:10;;;;;;;20.23;11.65;;;2.90;99.90;;;;;;5072279;28;20173;-49
2022/03/06 00:38:35;;;;;;;20.00;9.95;;;2.90;99.90;;;;;;5072677;28;20166;-49
2022/03/06 00:41:02;;;;;;;18.92;11.15;;;2.90;99.90;;;;;;5072349;28;20248;-49
2022/03/06 00:43:27;;;;;;;16.77;10.15;;;2.80;99.90;;;;;;5072513;28;20637;-49
2022/03/06 00:45:53;;;;;;;18.33;10.18;;;2.70;99.90;;;;;;5072167;28;20238;-49
2022/03/06 00:48:19;;;;;;;19.17;10.20;;;2.60;99.90;;;;;;5072308;28;20206;-50
2022/03/06 00:50:44;;;;;;;18.90;10.07;;;2.50;99.90;;;;;;5072082;28;20658;-50
2022/03/06 00:53:10;;;;;;;18.90;10.27;;;2.60;99.90;;;;;;5072119;28;20198;-49
2022/03/06 00:55:36;;;;;;;17.55;10.20;;;2.50;99.90;;;;;;5072324;28;20208;-49
2022/03/06 00:58:05;;;;;;;20.65;10.85;;;2.40;99.90;;;;;;5072231;28;20170;-50
2022/03/06 01:00:34;;;;;;;19.13;11.10;;;2.40;99.90;;;;;;5071779;28;20603;-49
2022/03/06 01:03:00;;;;;;;16.30;9.70;;;2.40;99.90;;;;;;5072114;28;20228;-49
2022/03/06 01:05:26;;;;;;;17.45;10.35;;;2.50;99.90;;;;;;5072045;28;20177;-49
2022/03/06 01:07:52;;;;;;;20.60;11.75;;;2.50;99.90;;;;;;5053938;28;20177;-50
2022/03/06 01:10:17;;;;;;;21.10;11.18;;;2.50;99.90;;;;;;5071740;28;20206;-49
2022/03/06 01:12:43;;;;;;;22.83;11.80;;;2.50;99.90;;;;;;5071844;28;20174;-50
2022/03/06 01:15:09;;;;;;;17.60;9.82;;;2.50;99.90;;;;;;5054151;28;20178;-49
2022/03/06 01:17:34;;;;;;;14.38;9.25;;;3.80;99.90;;;;;;5072201;28;20170;-50
2022/03/06 01:20:00;;;;;;;20.00;10.32;;;2.40;99.90;;;;;;5071950;28;20162;-49
2022/03/06 01:22:25;;;;;;;18.80;10.98;;;2.40;99.90;;;;;;5071635;28;20166;-50
2022/03/06 01:24:51;;;;;;;18.80;11.77;;;2.40;99.90;;;;;;5071765;28;20162;-49
2022/03/06 01:27:16;;;;;;;18.38;10.18;;;2.30;99.90;;;;;;5071773;28;20267;-50
2022/03/06 01:29:44;;;;;;;20.40;11.23;;;2.30;99.90;;;;;;5071617;28;20209;-49
2022/03/06 01:32:10;;;;;;;16.80;10.50;;;2.30;99.90;;;;;;5071709;28;20240;-49
2022/03/06 01:34:35;;;;;;;21.42;10.88;;;2.20;99.90;;;;;;5072071;28;20671;-49
2022/03/06 01:37:01;;;;;;;18.17;10.48;;;2.20;99.90;;;;;;5071621;28;20313;-49
2022/03/06 01:39:26;;;;;;;21.63;10.88;;;2.20;99.90;;;;;;5071600;28;20511;-49
2022/03/06 01:41:52;;;;;;;15.63;10.00;;;2.20;99.90;;;;;;5071562;28;20170;-49
2022/03/06 01:44:17;;;;;;;18.08;11.13;;;2.30;99.90;;;;;;5071904;28;20224;-49
2022/03/06 01:46:45;;;;;;;20.45;11.60;;;2.20;99.90;;;;;;5071472;28;20214;-49
2022/03/06 01:49:11;;;;;;;19.10;11.05;;;2.20;99.90;;;;;;5071442;28;20252;-49
2022/03/06 01:51:36;;;;;;;23.00;11.73;;;2.20;99.90;;;;;;5071903;28;20619;-49
2022/03/06 01:54:03;;;;;;;19.10;10.07;;;2.20;99.90;;;;;;5071507;28;20173;-49
2022/03/06 01:56:28;;;;;;;17.73;9.68;;;2.20;99.90;;;;;;5071502;28;20188;-49
2022/03/06 01:58:55;;;;;;;22.45;10.52;;;2.20;99.90;;;;;;5071501;28;20189;-49
2022/03/06 02:01:21;;;;;;;16.77;10.48;;;2.20;99.90;;;;;;5053471;28;20181;-49
2022/03/06 02:03:47;;;;;;;19.30;10.35;;;2.10;99.90;;;;;;5074965;28;20163;-49
2022/03/06 02:06:12;;;;;;;20.45;9.95;;;2.00;99.90;;;;;;5057217;28;20265;-49
2022/03/06 02:08:39;;;;;;;19.85;10.45;;;2.10;99.90;;;;;;5075554;28;20251;-49
2022/03/06 02:11:06;;;;;;;17.25;10.10;;;2.00;99.90;;;;;;5075615;28;20182;-49
2022/03/06 02:13:32;;;;;;;21.83;11.70;;;2.10;99.90;;;;;;5074981;28;20158;-49
2022/03/06 02:15:57;;;;;;;18.90;10.10;;;2.10;99.90;;;;;;5075008;28;20173;-50
2022/03/06 02:18:23;;;;;;;19.50;10.33;;;2.00;99.90;;;;;;5074899;28;20216;-49
2022/03/06 02:20:48;;;;;;;21.88;11.55;;;1.80;99.90;;;;;;5074934;28;20224;-49
2022/03/06 02:23:15;;;;;;;24.80;13.45;;;1.90;99.90;;;;;;5074980;28;20245;-49
2022/03/06 02:25:41;;;;;;;33.30;15.80;;;1.90;99.90;;;;;;5074973;28;20197;-49
2022/03/06 02:28:08;;;;;;;26.57;14.43;;;1.80;99.90;;;;;;5075031;28;20631;-49
2022/03/06 02:30:37;;;;;;;24.02;11.73;;;1.90;99.90;;;;;;5075002;28;20184;-49
2022/03/06 02:33:05;;;;;;;21.85;12.18;;;1.80;99.90;;;;;;5074629;28;20673;-49
2022/03/06 02:35:31;;;;;;;20.37;11.47;;;1.80;99.90;;;;;;5074850;28;20257;-49
2022/03/06 02:37:57;;;;;;;19.55;10.93;;;1.80;99.90;;;;;;5074603;28;20272;-49
2022/03/06 02:40:23;;;;;;;18.87;10.80;;;1.80;99.90;;;;;;5074582;28;20249;-49
2022/03/06 02:42:51;;;;;;;20.52;11.18;;;1.80;99.90;;;;;;5074601;28;20700;-49
2022/03/06 02:45:26;;;;;;;17.67;10.25;;;1.80;99.90;;;;;;5074536;28;20218;-49
2022/03/06 02:47:53;;;;;;;19.40;11.53;;;1.80;99.90;;;;;;5074421;28;20635;-49
2022/03/06 02:50:22;;;;;;;23.13;12.00;;;1.90;99.90;;;;;;5074271;28;20232;-49
2022/03/06 02:52:48;;;;;;;19.02;10.63;;;1.90;99.90;;;;;;5074428;28;20587;-49
2022/03/06 02:55:15;;;;;;;20.13;11.00;;;1.90;99.90;;;;;;5074323;28;20238;-49
2022/03/06 02:57:41;;;;;;;20.37;11.40;;;1.90;99.90;;;;;;5074251;28;20240;-49
2022/03/06 03:00:10;;;;;;;19.92;10.88;;;1.80;99.90;;;;;;5074581;28;20634;-50
2022/03/06 03:02:37;;;;;;;17.85;10.90;;;1.80;99.90;;;;;;5074829;28;20198;-50
2022/03/06 03:05:03;;;;;;;23.77;12.02;;;1.90;99.90;;;;;;5074116;28;20505;-50
2022/03/06 03:07:29;;;;;;;18.83;11.47;;;1.90;99.90;;;;;;5074168;28;20162;-49
2022/03/06 03:09:54;;;;;;;21.03;10.97;;;1.90;99.90;;;;;;5073903;28;20209;-49
2022/03/06 03:12:20;;;;;;;20.45;12.25;;;1.80;99.90;;;;;;5073950;28;20264;-49
2022/03/06 03:14:46;;;;;;;21.90;11.25;;;1.90;99.90;;;;;;5072723;28;20239;-49
2022/03/06 03:17:11;;;;;;;18.93;10.93;;;1.80;99.90;;;;;;5073896;28;20169;-49
2022/03/06 03:19:37;;;;;;;21.83;11.48;;;1.80;99.90;;;;;;5074104;28;20165;-49
2022/03/06 03:22:03;;;;;;;21.88;11.35;;;1.80;99.90;;;;;;5073823;28;20158;-49
2022/03/06 03:24:29;;;;;;;22.67;11.50;;;1.80;99.90;;;;;;5055848;28;20178;-49
2022/03/06 03:26:54;;;;;;;25.00;12.82;;;1.80;99.90;;;;;;5073839;28;20194;-49
2022/03/06 03:29:20;;;;;;;22.40;12.77;;;1.80;99.90;;;;;;5073793;28;20240;-49
2022/03/06 03:31:46;;;;;;;20.03;11.07;;;1.80;99.90;;;;;;5073568;28;20170;-49
2022/03/06 03:34:11;;;;;;;21.35;12.57;;;1.80;99.90;;;;;;5073547;28;20200;-49
2022/03/06 03:36:37;;;;;;;23.37;13.53;;;1.70;99.90;;;;;;5073719;28;20247;-49
2022/03/06 03:39:03;;;;;;;18.77;10.65;;;1.70;99.90;;;;;;5073605;28;20256;-49
2022/03/06 03:41:29;;;;;;;20.67;11.05;;;1.70;99.90;;;;;;5073397;28;20197;-49
2022/03/06 03:43:54;;;;;;;21.83;12.10;;;1.80;99.90;;;;;;5073332;28;20193;-49
2022/03/06 03:46:20;;;;;;;24.23;12.40;;;1.70;99.90;;;;;;5073186;28;20224;-49
2022/03/06 03:48:45;;;;;;;19.40;11.38;;;1.70;99.90;;;;;;5073252;28;20216;-49
2022/03/06 03:51:11;;;;;;;20.05;10.90;;;1.70;99.90;;;;;;5073207;28;20215;-49
2022/03/06 03:53:37;;;;;;;21.08;12.23;;;1.60;99.90;;;;;;5073400;28;20193;-49
2022/03/06 03:56:04;;;;;;;21.57;12.37;;;1.60;99.90;;;;;;5073139;28;20620;-49
2022/03/06 03:58:30;;;;;;;20.67;12.10;;;1.60;99.90;;;;;;5072994;28;20651;-49
2022/03/06 04:00:57;;;;;;;19.27;11.27;;;1.60;99.90;;;;;;5072971;28;20180;-49
2022/03/06 04:03:23;;;;;;;19.08;10.88;;;1.60;99.90;;;;;;5072860;28;20662;-49
2022/03/06 04:05:49;;;;;;;21.55;10.40;;;1.70;99.90;;;;;;5072927;28;20181;-49
2022/03/06 04:08:14;;;;;;;15.97;9.70;;;1.70;99.90;;;;;;5072776;28;20650;-49
2022/03/06 04:10:40;;;;;;;17.95;11.43;;;1.70;99.90;;;;;;5072809;28;20260;-49
2022/03/06 04:13:06;;;;;;;18.57;10.53;;;1.70;99.90;;;;;;5073162;28;20174;-49
2022/03/06 04:15:31;;;;;;;18.88;10.68;;;1.70;99.90;;;;;;5072534;28;20188;-49
2022/03/06 04:17:57;;;;;;;18.40;10.87;;;1.80;99.90;;;;;;5072754;28;20257;-50
2022/03/06 04:20:23;;;;;;;23.45;12.00;;;1.70;99.90;;;;;;5072938;28;20176;-49
2022/03/06 04:22:49;;;;;;;19.38;11.07;;;1.70;99.90;;;;;;5072629;28;20176;-49
2022/03/06 04:25:14;;;;;;;20.70;11.73;;;1.70;99.90;;;;;;5072518;28;20166;-49
2022/03/06 04:27:40;;;;;;;20.35;11.82;;;1.70;99.90;;;;;;5072434;28;20580;-49
2022/03/06 04:30:06;;;;;;;22.65;12.13;;;1.70;99.90;;;;;;5072670;28;20679;-49
2022/03/06 04:32:32;;;;;;;18.52;11.23;;;1.70;99.90;;;;;;5072428;28;20535;-49
2022/03/06 04:34:57;;;;;;;17.97;10.80;;;1.70;99.90;;;;;;5072332;28;20647;-49
2022/03/06 04:37:24;;;;;;;19.83;11.68;;;1.70;99.90;;;;;;5072349;28;20240;-49
2022/03/06 04:39:49;;;;;;;21.70;11.52;;;1.70;99.90;;;;;;5072541;28;20185;-49
2022/03/06 04:42:15;;;;;;;24.30;11.73;;;1.80;99.90;;;;;;5072250;28;20536;-49
2022/03/06 04:44:40;;;;;;;19.10;11.02;;;1.80;99.90;;;;;;5072234;28;20207;-49
2022/03/06 04:47:06;;;;;;;21.85;12.38;;;1.70;99.90;;;;;;5072421;28;20247;-49
2022/03/06 04:49:32;;;;;;;21.95;12.20;;;1.80;99.90;;;;;;5072317;28;20359;-49
2022/03/06 04:51:58;;;;;;;21.05;11.55;;;1.80;99.90;;;;;;5072222;28;20687;-49
2022/03/06 04:54:24;;;;;;;18.58;11.10;;;1.80;99.90;;;;;;5072064;28;20181;-49
2022/03/06 04:56:50;;;;;;;20.98;12.57;;;1.80;99.90;;;;;;5072282;28;20177;-49
2022/03/06 04:59:16;;;;;;;19.52;10.45;;;1.80;99.90;;;;;;5072040;28;20173;-49
2022/03/06 05:01:41;;;;;;;20.05;11.52;;;1.80;99.90;;;;;;5071937;28;20165;-49
2022/03/06 05:04:07;;;;;;;16.55;10.35;;;1.80;99.90;;;;;;5072138;28;20170;-49
2022/03/06 05:06:32;;;;;;;21.80;10.63;;;1.80;99.90;;;;;;5071912;28;20166;-49
2022/03/06 05:08:58;;;;;;;23.17;11.23;;;1.90;99.90;;;;;;5071780;28;20200;-49
2022/03/06 05:11:24;;;;;;;18.57;11.10;;;1.70;99.90;;;;;;5071874;28;20178;-49
2022/03/06 05:13:49;;;;;;;20.65;12.18;;;1.70;99.90;;;;;;5071855;28;20170;-48
2022/03/06 05:16:15;;;;;;;19.08;11.85;;;1.70;99.90;;;;;;5071892;28;20162;-49
2022/03/06 05:18:41;;;;;;;19.42;11.98;;;1.80;99.90;;;;;;5071880;28;20181;-49
2022/03/06 05:21:06;;;;;;;20.85;11.70;;;1.80;99.90;;;;;;5072122;28;20194;-49
2022/03/06 05:23:32;;;;;;;22.48;10.93;;;1.80;99.90;;;;;;5071813;28;20166;-50
2022/03/06 05:25:57;;;;;;;23.80;11.30;;;1.80;99.90;;;;;;5071829;28;20166;-49
2022/03/06 05:28:25;;;;;;;19.08;10.90;;;1.70;99.90;;;;;;5071863;28;20343;-49
2022/03/06 05:30:51;;;;;;;18.97;10.70;;;1.60;99.90;;;;;;5071982;28;20185;-49
2022/03/06 05:33:17;;;;;;;18.27;10.37;;;1.70;99.90;;;;;;5071736;28;20162;-49
2022/03/06 05:35:42;;;;;;;21.33;12.38;;;1.70;99.90;;;;;;5071704;28;20574;-49
2022/03/06 05:38:08;;;;;;;19.75;11.13;;;1.70;99.90;;;;;;5074901;28;20220;-49
2022/03/06 05:40:34;;;;;;;20.08;12.10;;;1.70;99.90;;;;;;5075765;28;20220;-49
2022/03/06 05:42:59;;;;;;;19.60;11.50;;;1.70;99.90;;;;;;5075625;28;20654;-49
2022/03/06 05:45:25;;;;;;;18.00;10.77;;;1.80;99.90;;;;;;5075411;28;20635;-49
2022/03/06 05:47:51;;;;;;;20.83;11.80;;;1.70;99.90;;;;;;5075526;28;20249;-49
2022/03/06 05:50:16;;;;;;;18.10;11.30;;;1.70;99.90;;;;;;5075465;28;20212;-49
2022/03/06 05:52:42;;;;;;;18.67;11.48;;;1.70;99.90;;;;;;5075375;28;20174;-49
2022/03/06 05:55:08;;;;;;;18.67;10.65;;;1.70;99.90;;;;;;5075866;28;20166;-49
2022/03/06 05:57:34;;;;;;;20.42;11.82;;;1.70;99.90;;;;;;5075409;28;20170;-48
2022/03/06 05:59:59;;;;;;;19.15;11.30;;;1.60;99.90;;;;;;5075243;28;20166;-49
2022/03/06 06:02:25;;;;;;;23.23;11.68;;;1.60;99.90;;;;;;5075422;28;20195;-48
2022/03/06 06:04:51;;;;;;;23.60;12.65;;;1.70;99.90;;;;;;5075459;28;20230;-49
2022/03/06 06:07:17;;;;;;;22.10;12.68;;;1.60;99.90;;;;;;5075640;28;20568;-49
2022/03/06 06:09:42;;;;;;;27.17;13.13;;;1.50;99.90;;;;;;5075231;28;20298;-49
2022/03/06 06:12:08;;;;;;;22.65;12.70;;;1.50;99.90;;;;;;5057489;28;20159;-49
2022/03/06 06:14:34;;;;;;;18.90;11.65;;;1.60;99.90;;;;;;5075339;28;20292;-49
2022/03/06 06:17:00;;;;;;;23.35;12.05;;;1.60;99.90;;;;;;5074968;28;20194;-49
2022/03/06 06:19:25;;;;;;;27.17;12.88;;;1.50;99.90;;;;;;5074963;28;20166;-49
2022/03/06 06:21:51;;;;;;;20.23;11.52;;;1.50;99.90;;;;;;5075047;28;20162;-49
2022/03/06 06:24:17;;;;;;;22.45;12.30;;;1.50;99.90;;;;;;5075088;28;20181;-49
2022/03/06 06:26:45;;;;;;;24.10;12.50;;;1.60;99.90;;;;;;5074765;28;20197;-49
2022/03/06 06:29:12;;;;;;;40.47;17.00;;;1.50;99.90;;;;;;5074726;28;20198;-49
2022/03/06 06:31:38;;;;;;;23.60;12.48;;;1.60;99.90;;;;;;5075282;28;20249;-49
2022/03/06 06:34:03;;;;;;;22.70;12.23;;;1.60;99.90;;;;;;5074692;28;20612;-49
2022/03/06 06:36:29;;;;;;;22.08;11.35;;;1.60;99.90;;;;;;5074331;28;20166;-49
2022/03/06 06:38:54;;;;;;;22.10;11.40;;;1.70;99.90;;;;;;5074560;28;20188;-50
2022/03/06 06:41:20;;;;;;;22.83;12.27;;;1.60;99.90;;;;;;5074562;28;20257;-50
2022/03/06 06:43:46;;;;;;;22.70;11.23;;;1.60;99.90;;;;;;5074444;28;20178;-49
2022/03/06 06:46:12;;;;;;;23.55;11.82;;;1.60;99.90;;;;;;5074223;28;20217;-49
2022/03/06 06:48:38;;;;;;;21.10;12.90;;;1.60;99.90;;;;;;5074589;28;20227;-49
2022/03/06 06:51:04;;;;;;;26.90;14.18;;;1.70;99.90;;;;;;5074417;28;20178;-49
2022/03/06 06:53:30;;;;;;;20.40;11.65;;;1.70;99.90;;;;;;5074315;28;20207;-49
2022/03/06 06:55:55;;;;;;;21.40;11.27;;;1.70;99.90;;;;;;5074267;28;20696;-49
2022/03/06 06:58:21;;;;;;;23.33;12.30;;;1.80;99.90;;;;;;5074212;28;20188;-49
2022/03/06 07:00:46;;;;;;;18.63;11.23;;;1.80;99.90;;;;;;5074140;28;20589;-50
2022/03/06 07:03:12;;;;;;;19.45;10.70;;;1.80;99.90;;;;;;5074224;28;20170;-49
2022/03/06 07:05:38;;;;;;;23.40;11.82;;;1.90;99.90;;;;;;5074394;28;20273;-49
2022/03/06 07:08:04;;;;;;;18.80;10.88;;;1.80;99.90;;;;;;5074232;28;20259;-49
2022/03/06 07:10:29;;;;;;;22.80;12.45;;;1.80;99.90;;;;;;5074177;28;20286;-49
2022/03/06 07:12:55;;;;;;;18.40;10.93;;;1.80;99.90;;;;;;5073726;28;20158;-52
2022/03/06 07:15:28;;;;;;;20.25;12.55;;;1.90;99.90;;;;;;5073950;28;20582;-49
2022/03/06 07:17:55;;;;;;;18.50;10.85;;;1.90;99.90;;;;;;5073909;28;20154;-49
2022/03/06 07:20:21;;;;;;;47.53;19.17;;;2.00;99.90;;;;;;5074085;28;20166;-49
2022/03/06 07:22:46;;;;;;;26.38;11.82;;;2.00;99.90;;;;;;5073894;28;20315;-49
2022/03/06 07:25:12;;;;;;;21.38;12.93;;;2.00;99.90;;;;;;5073874;28;20528;-48
2022/03/06 07:27:37;;;;;;;18.42;11.75;;;1.80;99.90;;;;;;5074131;28;20227;-49
2022/03/06 07:30:03;;;;;;;23.00;13.82;;;1.80;99.90;;;;;;5073297;28;20279;-49
2022/03/06 07:32:29;;;;;;;23.75;12.10;;;2.00;99.90;;;;;;5073620;28;20166;-49
2022/03/06 07:34:54;;;;;;;23.48;12.65;;;2.10;99.90;;;;;;5073001;28;20183;-49
2022/03/06 07:37:20;;;;;;;21.10;12.45;;;2.10;99.90;;;;;;5073364;28;20212;-49
2022/03/06 07:39:46;;;;;;;23.70;12.95;;;2.30;99.90;;;;;;5073056;28;20523;-49
2022/03/06 07:42:11;;;;;;;21.88;12.45;;;2.30;99.90;;;;;;5073337;28;20170;-49
2022/03/06 07:44:37;;;;;;;20.05;12.02;;;2.30;99.90;;;;;;5073455;28;20198;-49
2022/03/06 07:47:02;;;;;;;20.15;12.55;;;2.40;99.90;;;;;;5072580;28;20221;-49
2022/03/06 07:49:28;;;;;;;22.30;13.02;;;2.50;99.90;;;;;;5072882;28;20295;-49
2022/03/06 07:51:53;;;;;;;25.50;13.30;;;2.60;99.90;;;;;;5073012;28;20245;-49
2022/03/06 07:54:19;;;;;;;23.50;13.85;;;2.80;99.90;;;;;;5073244;28;20178;-49
2022/03/06 07:56:45;;;;;;;20.90;12.63;;;2.90;99.90;;;;;;5073350;28;20237;-49
2022/03/06 07:59:11;;;;;;;19.60;12.25;;;3.10;99.90;;;;;;5072556;28;20714;-49
2022/03/06 08:01:36;;;;;;;24.50;14.68;;;3.00;99.90;;;;;;5073136;28;20254;-49
2022/03/06 08:04:02;;;;;;;19.55;12.73;;;2.80;99.90;;;;;;5072986;28;20170;-49
2022/03/06 08:06:28;;;;;;;22.55;13.90;;;3.00;99.90;;;;;;5072878;28;20531;-50
2022/03/06 08:08:53;;;;;;;18.73;12.27;;;3.10;99.90;;;;;;5072807;28;20549;-49
2022/03/06 08:11:19;;;;;;;25.13;13.18;;;3.30;99.90;;;;;;5072482;28;20307;-49
2022/03/06 08:13:44;;;;;;;22.17;13.60;;;3.20;99.90;;;;;;5072650;28;20166;-49
2022/03/06 08:16:10;;;;;;;22.67;13.48;;;3.30;99.90;;;;;;5054836;28;20176;-49
2022/03/06 08:18:36;;;;;;;18.98;12.80;;;3.50;99.90;;;;;;5054991;28;20545;-49
2022/03/06 08:21:01;;;;;;;23.30;14.60;;;3.50;99.90;;;;;;5072401;28;20497;-49
2022/03/06 08:23:27;;;;;;;24.92;14.20;;;3.70;99.90;;;;;;5072813;28;20177;-49
2022/03/06 08:25:53;;;;;;;24.60;14.80;;;3.70;99.90;;;;;;5072618;28;20168;-48
2022/03/06 08:28:18;;;;;;;28.20;16.50;;;3.70;99.90;;;;;;5072649;28;20592;-48
2022/03/06 08:30:44;;;;;;;27.30;15.85;;;3.80;99.90;;;;;;5072427;28;20184;-48
2022/03/06 08:33:09;;;;;;;24.48;16.25;;;3.80;99.90;;;;;;5072022;28;20169;-47
2022/03/06 08:35:35;;;;;;;26.25;15.52;;;4.00;99.90;;;;;;5072737;28;20173;-48
2022/03/06 08:38:00;;;;;;;28.00;16.50;;;3.90;99.90;;;;;;5054428;28;20166;-48
2022/03/06 08:40:26;;;;;;;26.00;16.38;;;4.30;99.90;;;;;;5072255;28;20523;-47
2022/03/06 08:42:52;;;;;;;28.67;16.25;;;4.50;99.90;;;;;;5054091;28;20166;-48
2022/03/06 08:45:17;;;;;;;26.00;15.55;;;4.70;99.90;;;;;;5072108;28;20213;-48
2022/03/06 08:47:43;;;;;;;25.92;15.60;;;4.50;99.90;;;;;;5072027;28;20643;-48
2022/03/06 08:50:09;;;;;;;26.45;14.95;;;4.50;99.90;;;;;;5072327;28;20202;-48
2022/03/06 08:52:34;;;;;;;26.27;15.75;;;4.60;99.90;;;;;;5072471;28;20650;-48
2022/03/06 08:55:00;;;;;;;28.60;15.60;;;4.60;99.90;;;;;;5072148;28;20535;-48
2022/03/06 08:57:25;;;;;;;28.08;15.77;;;4.60;99.90;;;;;;5071837;28;20166;-48
2022/03/06 08:59:51;;;;;;;24.77;16.00;;;4.70;99.90;;;;;;5072038;28;20169;-48
2022/03/06 09:02:16;;;;;;;28.17;16.98;;;4.90;99.90;;;;;;5071952;28;20243;-48
2022/03/06 09:04:42;;;;;;;25.10;16.13;;;4.80;99.90;;;;;;5072111;28;20173;-48
2022/03/06 09:07:08;;;;;;;26.52;16.42;;;4.80;99.90;;;;;;5072319;28;20178;-48
2022/03/06 09:09:33;;;;;;;24.15;15.95;;;4.80;99.90;;;;;;5071990;28;20266;-48
2022/03/06 09:11:59;;;;;;;23.38;15.38;;;4.90;99.90;;;;;;5072021;28;20158;-48
2022/03/06 09:14:24;;;;;;;23.75;15.00;;;4.90;99.90;;;;;;5071902;28;20692;-48
2022/03/06 09:16:50;;;;;;;22.80;15.15;;;5.00;99.90;;;;;;5071293;28;20184;-48
2022/03/06 09:19:15;;;;;;;23.63;15.02;;;5.20;99.90;;;;;;5071841;28;20197;-48
2022/03/06 09:21:43;;;;;;;23.77;14.98;;;5.50;99.90;;;;;;5071420;28;20174;-48
2022/03/06 09:24:09;;;;;;;23.00;14.80;;;5.60;99.90;;;;;;5071844;28;20211;-47
2022/03/06 09:26:35;;;;;;;23.50;14.52;;;8.60;99.90;;;;;;5071824;28;20166;-48
2022/03/06 09:29:01;;;;;;;24.42;15.68;;;5.80;99.90;;;;;;5072038;28;20198;-48
2022/03/06 09:31:27;;;;;;;25.15;15.45;;;5.70;99.90;;;;;;5071817;28;20670;-48
2022/03/06 09:33:53;;;;;;;26.55;16.45;;;5.60;99.90;;;;;;5071795;28;20158;-48
2022/03/06 09:36:19;;;;;;;28.40;16.95;;;5.60;99.90;;;;;;5071748;28;20166;-48
2022/03/06 09:38:44;;;;;;;26.27;16.50;;;5.70;99.90;;;;;;5071761;28;20162;-47
2022/03/06 09:41:15;;;;;;;25.67;16.73;;;5.70;99.90;;;;;;5071504;28;20171;-47
2022/03/06 09:43:41;;;;;;;20.77;15.55;;;5.70;99.90;;;;;;5071410;28;20170;-48
2022/03/06 09:46:08;;;;;;;22.13;14.13;;;5.70;99.90;;;;;;5071822;28;20210;-48
2022/03/06 09:48:34;;;;;;;25.23;16.20;;;5.60;99.90;;;;;;5071441;28;20166;-48
2022/03/06 09:51:04;;;;;;;21.05;14.68;;;5.60;99.90;;;;;;5071547;28;20552;-48
2022/03/06 09:53:29;;;;;;;24.70;14.77;;;5.70;99.90;;;;;;5071057;28;20655;-48
2022/03/06 09:55:56;;;;;;;24.83;17.00;;;5.70;99.90;;;;;;5071501;28;20170;-48
2022/03/06 09:58:21;;;;;;;25.90;17.70;;;5.70;99.90;;;;;;5071423;28;20245;-48
2022/03/06 10:00:47;;;;;;;23.15;15.23;;;5.80;99.90;;;;;;5071479;28;20258;-48
2022/03/06 10:03:18;;;;;;;27.25;16.05;;;5.70;99.90;;;;;;5071525;28;20529;-48
2022/03/06 10:05:43;;;;;;;26.02;15.52;;;5.80;99.90;;;;;;5071361;28;20162;-48
2022/03/06 10:08:25;;;;;;;24.30;16.65;;;5.70;99.90;;;;;;5071570;28;20154;-47
2022/03/06 10:10:56;;;;;;;26.58;16.42;;;5.70;99.90;;;;;;5071525;28;20208;-47
2022/03/06 10:13:30;;;;;;;25.75;16.23;;;5.60;99.90;;;;;;5071638;28;20201;-48
2022/03/06 10:16:00;;;;;;;26.90;15.93;;;5.70;99.90;;;;;;5071398;28;20162;-47
2022/03/06 10:18:28;;;;;;;28.38;15.85;;;5.80;99.90;;;;;;5071244;28;20182;-48
2022/03/06 10:20:53;;;;;;;22.90;15.20;;;6.00;99.90;;;;;;5071059;28;20170;-48
2022/03/06 10:23:26;;;;;;;28.08;15.85;;;6.40;99.90;;;;;;5072272;28;20162;-48
2022/03/06 10:26:04;;;;;;;24.25;15.20;;;6.40;99.90;;;;;;5074783;28;20521;-48
2022/03/06 10:28:29;;;;;;;23.75;15.88;;;6.50;99.90;;;;;;5074992;28;20166;-48
2022/03/06 10:31:05;;;;;;;26.75;15.60;;;6.70;99.90;;;;;;5074490;28;20525;-48
2022/03/06 10:33:31;;;;;;;23.65;15.85;;;6.60;99.90;;;;;;5074899;28;20169;-48
2022/03/06 10:35:58;;;;;;;23.00;15.68;;;6.50;99.90;;;;;;5074438;28;20196;-48
2022/03/06 10:38:34;;;;;;;21.33;14.82;;;6.50;99.90;;;;;;5074726;28;20567;-48
2022/03/06 10:41:03;;;;;;;23.13;14.73;;;6.70;99.90;;;;;;5074666;28;20226;-47
2022/03/06 10:43:34;;;;;;;21.08;15.10;;;6.60;99.90;;;;;;5074439;28;20667;-48
2022/03/06 10:46:14;;;;;;;26.23;15.98;;;6.70;99.90;;;;;;5073984;28;20638;-48
2022/03/06 10:48:42;;;;;;;23.80;15.30;;;6.70;99.90;;;;;;5074077;28;20252;-48
2022/03/06 10:51:10;;;;;;;28.00;15.23;;;6.70;99.90;;;;;;5074726;28;20166;-48
2022/03/06 10:53:37;;;;;;;23.48;15.20;;;6.80;99.90;;;;;;5057181;28;20566;-48
2022/03/06 10:56:12;;;;;;;22.10;14.50;;;6.90;99.90;;;;;;5074374;28;20249;-48
2022/03/06 10:58:40;;;;;;;21.98;15.95;;;6.60;99.90;;;;;;5074615;28;20618;-48
2022/03/06 11:01:06;;;;;;;24.30;15.65;;;6.50;99.90;;;;;;5074445;28;20208;-48
2022/03/06 11:03:35;;;;;;;24.77;14.48;;;6.60;99.90;;;;;;5073901;28;20254;-48
2022/03/06 11:06:09;;;;;;;23.27;14.52;;;6.60;99.90;;;;;;5074406;28;20178;-48
2022/03/06 11:08:36;;;;;;;20.95;14.77;;;6.80;99.90;;;;;;5074480;28;20597;-48
2022/03/06 11:11:08;;;;;;;30.35;17.83;;;7.10;99.90;;;;;;5074024;28;20174;-48
2022/03/06 11:13:34;;;;;;;22.20;14.95;;;7.00;99.90;;;;;;5073894;28;20576;-48
2022/03/06 11:16:01;;;;;;;24.40;15.35;;;6.90;99.90;;;;;;5074036;28;20190;-48
2022/03/06 11:18:28;;;;;;;21.95;14.02;;;7.10;99.90;;;;;;5074206;28;20170;-48
2022/03/06 11:20:55;;;;;;;22.52;13.73;;;7.20;99.90;;;;;;5073735;28;20220;-49
2022/03/06 11:23:39;;;;;;;22.90;13.93;;;7.30;99.90;;;;;;5073675;28;20189;-49
2022/03/06 11:26:14;;;;;;;19.27;12.93;;;7.40;99.90;;;;;;5055857;28;20184;-48
2022/03/06 11:29:13;;;;;;;20.33;14.20;;;7.50;99.90;;;;;;5073931;28;20197;-49
2022/03/06 11:31:50;;;;;;;19.35;12.63;;;7.70;99.90;;;;;;5046781;28;20660;-48
2022/03/06 11:34:26;;;;;;;19.90;12.10;;;7.70;99.90;;;;;;5072615;28;20252;-48
2022/03/06 11:36:53;;;;;;;15.88;11.80;;;7.70;99.90;;;;;;5073386;28;20174;-47
2022/03/06 11:39:30;;;;;;;16.58;12.30;;;7.70;99.90;;;;;;5073544;28;20170;-48
2022/03/06 11:42:04;;;;;;;18.48;11.65;;;8.00;99.90;;;;;;5073204;28;20583;-49
2022/03/06 11:44:49;;;;;;;19.85;13.25;;;8.20;99.90;;;;;;5073155;28;20590;-48
2022/03/06 11:47:39;;;;;;;17.33;12.05;;;8.20;99.90;;;;;;5072945;28;20569;-48
2022/03/06 11:50:05;;;;;;;16.20;11.13;;;8.10;99.90;;;;;;5073538;28;20205;-48
2022/03/06 11:52:34;;;;;;;18.20;12.57;;;8.10;99.90;;;;;;5073247;28;20645;-49
2022/03/06 11:55:00;;;;;;;15.98;11.85;;;8.20;99.90;;;;;;5073011;28;20166;-48
2022/03/06 11:57:40;;;;;;;18.10;11.15;;;8.00;99.90;;;;;;5073071;28;20162;-48
2022/03/06 12:00:19;;;;;;;20.08;11.95;;;8.10;99.90;;;;;;5072925;28;20225;-48
2022/03/06 12:02:53;;;;;;;17.77;12.48;;;8.20;99.90;;;;;;5072508;28;20497;-48
2022/03/06 12:05:42;;;;;;;16.65;12.68;;;8.20;99.90;;;;;;5072876;28;20166;-49
2022/03/06 12:08:10;;;;;;;21.08;12.82;;;8.30;99.90;;;;;;5073268;28;20196;-48
2022/03/06 12:10:38;;;;;;;18.38;12.00;;;8.30;99.90;;;;;;5073036;28;20201;-49
2022/03/06 12:13:04;;;;;;;19.73;13.07;;;8.40;99.90;;;;;;5072027;28;20590;-48
2022/03/06 12:15:29;;;;;;;18.40;13.27;;;8.60;99.90;;;;;;5072673;28;20193;-48
2022/03/06 12:18:04;;;;;;;20.45;13.93;;;8.70;99.90;;;;;;5072616;28;20166;-48
2022/03/06 12:20:43;;;;;;;20.40;13.93;;;8.80;99.90;;;;;;5072764;28;20173;-48
2022/03/06 12:23:21;;;;;;;17.95;14.95;;;8.90;99.90;;;;;;5072969;28;20237;-48
2022/03/06 12:25:59;;;;;;;22.00;14.23;;;8.90;99.90;;;;;;5072812;28;20194;-48
2022/03/06 12:28:37;;;;;;;18.63;14.68;;;9.20;99.90;;;;;;5072419;28;20710;-48
2022/03/06 12:31:28;;;;;;;18.65;11.85;;;9.10;99.90;;;;;;5072659;28;20177;-48
2022/03/06 12:33:53;;;;;;;16.60;13.40;;;8.90;99.90;;;;;;5072012;28;20166;-48
2022/03/06 12:36:23;;;;;;;16.30;12.20;;;8.80;99.90;;;;;;5072295;28;20180;-48
2022/03/06 12:38:54;;;;;;;17.00;12.40;;;8.60;99.90;;;;;;5071938;28;20694;-48